Spearfish, SD (57783)

9:55 AM MDT on October 31, 2014 (GMT -0600)
TMWC | Change Station
CLOSE
Current Station
Personal Weather Station
Location: Spearfish, SD
Elevation: 3687 ft
Nearby Weather Stations

Elev 3687 ft 44.49 °N, 103.87 °W | Updated 4 seconds ago

Fog
Fog
34.3 °F
Feels Like 34 °F
N
1.2
Wind Variable Wind from SW
Gusts 0.0 mph

Today
High -- | Low -- °F
--% Chance of Precip.
Yesterday
High -- | Low -- °F
Precip. -- in
7:31 AM 5:45 PM
First Quarter, 56% visible
Pressure 30.20 in
Visibility 0.2 miles
Clouds Overcast 200 ft
Windchill 34 °F
Dew Point 31 °F
Humidity 88%
Rainfall 0.00 in
Snow Depth Not available.
UV 0 out of 12
Pollen .50 out of 12
Air Quality Not available.
Flu Activity Not available.
METAR KSPF 311535Z AUTO 00000KT 1/4SM FZFG OVC002 M01/M01 A3020 RMK AO2

More Conditions Fewer Conditions

Pressure 30.20 in
Visibility 0.2 miles
Clouds Overcast 200 ft
Windchill 34 °F
Dew Point 31 °F
Humidity 88%
Rainfall 0.00 in
Snow Depth Not available.
UV 0 out of 12
Pollen .50 out of 12
Air Quality Not available.
Flu Activity Not available.
METAR KSPF 311535Z AUTO 00000KT 1/4SM FZFG OVC002 M01/M01 A3020 RMK AO2

More Conditions Fewer Conditions

10-Day Weather Forecast

Almanac

Astronomy

Oct. 31, 2014 Rise Set
Actual Time
Civil Twilight
Nautical Twilight
Astronomical Twilight
Moon
Length of Visible Light
Length of Day
Tomorrow will be .
, % of the Moon is Illuminated

Today's Extremes

State Highs State Lows

Community

WunderPhotos

Upload Photos

1,766,644 photos uploaded!

WunderBlogs® & News

Nearby

Air Quality

  Air Quality AQ Index Pollutant
Not available.

Snow Depth

Station Depth Elevation

Earthquake Activity

City Distance Mag. Time & Date
Minimum magnitude displayed is 2.5.

Coastal Water Temperatures

Place Temperature

Nearby Weather Stations